Time;durP1;ratioP1;P1;durP2;ratioP2;P2;SDS_P1;SDS_P2;PMS_P1;PMS_P2;Temp;Humidity;BMP_temperature;BMP_pressure;BME280_temperature;BME280_humidity;BME280_pressure;Samples;Min_cycle;Max_cycle;Signal;HPM_P1;HPM_P2
2022/09/26 08:06:01;;;;;;;5.25;2.63;;;;;;;11.05;77.80;95843.34;2121316;27;20225;-69
2022/09/26 08:07:02;;;;;;;8.43;3.13;;;;;;;11.14;76.99;95836.75;2084086;27;1223831;-68
2022/09/26 08:20:32;;;;;;;11.00;2.25;;;;;;;11.13;77.58;95817.59;2094309;27;20556;-69
2022/09/26 08:21:34;;;;;;;5.53;2.60;;;;;;;11.26;77.48;95789.78;2088678;28;20227;-68
2022/09/26 08:22:35;;;;;;;8.55;2.53;;;;;;;11.86;76.62;95815.75;2094956;28;20291;-68
2022/09/26 08:23:37;;;;;;;7.88;2.38;;;;;;;12.32;73.87;95822.50;2089160;28;20663;-68
2022/09/26 08:36:04;;;;;;;5.05;1.70;;;;;;;16.76;58.50;95819.06;2090675;28;20195;-69
2022/09/26 08:37:06;;;;;;;4.45;1.85;;;;;;;17.05;58.00;95815.84;2098195;28;20239;-69
2022/09/26 08:38:08;;;;;;;12.55;1.70;;;;;;;17.06;57.44;95818.34;2096738;28;20230;-70
2022/09/26 08:39:09;;;;;;;4.03;1.70;;;;;;;16.97;57.62;95805.94;2098306;28;20256;-69
2022/09/26 08:40:11;;;;;;;6.07;2.53;;;;;;;17.17;56.59;95809.53;2097390;28;20258;-68
2022/09/26 08:41:44;;;;;;;5.60;2.28;;;;;;;17.50;56.75;95801.53;2095432;28;20310;-69
2022/09/26 08:43:05;;;;;;;3.33;2.28;;;;;;;17.36;56.18;95803.53;2094253;28;20214;-68
2022/09/26 08:44:28;;;;;;;6.50;2.00;;;;;;;17.93;55.67;95793.34;2096342;28;20224;-69
2022/09/26 08:47:20;;;;;;;2.78;1.85;;;;;;;17.14;57.65;95805.34;2096770;28;20638;-69
2022/09/26 08:48:38;;;;;;;12.75;2.90;;;;;;;17.39;57.43;95790.06;2097330;28;20234;-69
2022/09/26 08:49:54;;;;;;;4.55;1.95;;;;;;;18.09;56.07;95802.56;2098951;28;20223;-69
2022/09/26 08:51:05;;;;;;;4.68;1.65;;;;;;;17.81;55.93;95799.66;2096327;28;20214;-69
2022/09/26 08:52:32;;;;;;;4.22;1.55;;;;;;;18.21;54.43;95803.31;2094941;28;20337;-69
2022/09/26 08:53:47;;;;;;;3.88;1.90;;;;;;;17.72;56.29;95797.84;2094082;28;20286;-69
2022/09/26 08:54:51;;;;;;;12.35;2.25;;;;;;;18.28;54.29;95793.84;2095938;28;20246;-69
2022/09/26 08:55:56;;;;;;;5.25;1.60;;;;;;;18.39;53.90;95780.50;2094603;28;20250;-69
2022/09/26 08:57:14;;;;;;;4.18;1.40;;;;;;;18.59;52.00;95794.56;2095637;28;20207;-69
2022/09/26 08:58:20;;;;;;;2.92;1.50;;;;;;;16.76;53.97;95764.56;2095328;28;20199;-69
2022/09/26 08:59:44;;;;;;;5.53;1.60;;;;;;;17.34;54.09;95789.63;2096008;28;20922;-68
2022/09/26 09:06:04;;;;;;;4.13;1.52;;;;;;;16.89;54.33;95788.09;2095462;28;20212;-68
2022/09/26 09:07:19;;;;;;;3.10;1.00;;;;;;;17.20;53.63;95782.06;2095561;28;20283;-69
2022/09/26 09:08:26;;;;;;;4.47;1.52;;;;;;;17.54;52.12;95789.72;2096175;28;20825;-69
2022/09/26 09:09:28;;;;;;;6.88;1.88;;;;;;;17.21;53.35;95789.84;2096019;28;20211;-69
2022/09/26 09:10:55;;;;;;;4.28;1.42;;;;;;;18.03;52.46;95788.09;2096404;28;20240;-69
2022/09/26 09:12:20;;;;;;;3.47;1.55;;;;;;;18.42;51.14;95790.81;2093839;28;20283;-69
2022/09/26 09:13:37;;;;;;;4.90;1.33;;;;;;;18.16;50.75;95789.66;2111569;28;20664;-69
2022/09/26 09:14:51;;;;;;;9.43;1.52;;;;;;;17.88;50.98;95786.78;2099919;28;20219;-69
2022/09/26 09:16:21;;;;;;;7.05;1.30;;;;;;;17.27;53.03;95786.69;2093190;28;20266;-69
2022/09/26 09:18:11;;;;;;;3.88;1.42;;;;;;;17.75;53.49;95789.66;2095495;28;20227;-69
2022/09/26 09:19:33;;;;;;;4.60;1.35;;;;;;;16.79;54.00;95776.63;2092394;28;20198;-69
2022/09/26 09:20:46;;;;;;;3.40;1.38;;;;;;;17.60;53.72;95790.03;2098145;28;20345;-69
2022/09/26 09:21:57;;;;;;;3.97;1.50;;;;;;;16.84;54.51;95786.81;2097441;28;20607;-69
2022/09/26 09:23:30;;;;;;;3.47;1.65;;;;;;;15.90;56.82;95779.47;2095300;28;20199;-69
2022/09/26 09:24:58;;;;;;;1.70;0.98;;;;;;;14.72;58.55;95761.34;2095992;28;20290;-69
2022/09/26 09:26:08;;;;;;;4.90;1.55;;;;;;;15.01;59.22;95781.00;2092973;28;20217;-69
2022/09/26 09:27:46;;;;;;;7.03;1.60;;;;;;;16.56;55.83;95778.56;2095862;28;20216;-68
2022/09/26 09:29:18;;;;;;;7.15;1.27;;;;;;;17.33;53.41;95772.13;2093994;28;20231;-68
2022/09/26 09:30:42;;;;;;;2.33;1.33;;;;;;;18.39;51.42;95761.19;2094763;28;20247;-69
2022/09/26 09:31:46;;;;;;;4.15;1.40;;;;;;;18.52;50.14;95767.00;2090815;28;20228;-69
2022/09/26 09:32:57;;;;;;;4.45;1.67;;;;;;;18.04;50.64;95778.38;2089951;28;20955;-69
2022/09/26 09:34:04;;;;;;;3.25;1.23;;;;;;;18.06;50.92;95777.25;2093581;28;20286;-68
2022/09/26 09:35:13;;;;;;;3.58;1.42;;;;;;;18.71;49.24;95770.63;2091221;28;20762;-69
2022/09/26 09:36:25;;;;;;;4.85;1.50;;;;;;;18.96;49.10;95757.81;2089864;28;20287;-69
2022/09/26 09:37:41;;;;;;;7.68;1.70;;;;;;;18.97;48.91;95776.22;2091629;28;20224;-69
2022/09/26 09:38:46;;;;;;;4.70;1.30;;;;;;;18.06;49.65;95771.97;2088208;28;20347;-69
2022/09/26 09:39:49;;;;;;;2.53;1.33;;;;;;;17.86;50.13;95759.66;2093519;28;20638;-68
2022/09/26 09:41:13;;;;;;;5.72;1.75;;;;;;;16.84;51.14;95760.44;2087994;28;20879;-68
2022/09/26 09:42:34;;;;;;;9.75;2.17;;;;;;;15.85;54.00;95755.31;2091874;28;20405;-67
2022/09/26 09:43:56;;;;;;;4.90;1.30;;;;;;;15.56;54.82;95763.69;2089462;28;20735;-68
2022/09/26 09:45:22;;;;;;;5.00;1.30;;;;;;;15.04;56.62;95753.63;2087452;28;20232;-67
2022/09/26 09:46:31;;;;;;;4.20;1.42;;;;;;;14.92;57.14;95760.66;2088243;28;20760;-68
2022/09/26 09:47:38;;;;;;;6.47;1.67;;;;;;;15.54;56.90;95769.09;2089485;28;20228;-68
2022/09/26 09:48:39;;;;;;;5.80;1.75;;;;;;;16.73;53.63;95770.06;2089898;28;20234;-68
2022/09/26 09:49:42;;;;;;;8.05;1.70;;;;;;;16.43;53.56;95766.38;2090013;28;20245;-68
2022/09/26 09:51:04;;;;;;;3.63;1.33;;;;;;;16.13;54.38;95765.28;2089190;28;20780;-68
2022/09/26 09:52:14;;;;;;;8.02;1.40;;;;;;;17.21;52.53;95767.91;2088320;28;20228;-67
2022/09/26 09:53:41;;;;;;;6.93;1.50;;;;;;;18.07;50.95;95762.25;2091146;28;20340;-69
2022/09/26 09:54:54;;;;;;;3.20;1.52;;;;;;;18.80;48.57;95755.72;2090313;28;20829;-68
2022/09/26 09:56:01;;;;;;;4.70;1.00;;;;;;;18.88;48.14;95756.69;2089097;28;20256;-68
2022/09/26 09:57:15;;;;;;;2.55;1.05;;;;;;;19.14;46.56;95750.00;2089819;28;20218;-69
2022/09/26 09:59:02;;;;;;;3.08;1.45;;;;;;;20.58;44.48;95752.16;2090020;28;20196;-68
2022/09/26 10:06:51;;;;;;;2.90;0.93;;;;;;;16.03;53.07;95724.03;2088353;28;20254;-67
2022/09/26 10:07:58;;;;;;;6.30;1.40;;;;;;;16.54;51.90;95733.03;2090827;28;20292;-67
2022/09/26 10:09:11;;;;;;;2.67;1.08;;;;;;;16.81;51.25;95735.16;2090501;28;20319;-68
2022/09/26 10:10:41;;;;;;;7.07;3.08;;;;;;;18.36;48.79;95730.56;2090269;28;20220;-68
2022/09/26 10:11:46;;;;;;;2.83;1.20;;;;;;;18.14;49.75;95738.75;2087106;28;20228;-68
2022/09/26 10:12:54;;;;;;;4.25;1.15;;;;;;;17.52;50.06;95715.13;2083016;28;20276;-68
2022/09/26 10:14:05;;;;;;;3.65;1.30;;;;;;;17.12;51.68;95717.59;2084177;28;20232;-68
2022/09/26 10:15:18;;;;;;;1.65;1.10;;;;;;;16.33;52.55;95724.16;2087596;28;20246;-69
2022/09/26 10:16:20;;;;;;;3.30;1.25;;;;;;;16.45;52.87;95719.66;2089330;28;20544;-69
2022/09/26 10:17:22;;;;;;;8.07;1.15;;;;;;;17.08;51.43;95720.66;2089802;28;20315;-68
2022/09/26 10:18:24;;;;;;;4.30;1.15;;;;;;;16.41;51.69;95714.78;2090596;28;20707;-70
2022/09/26 10:19:37;;;;;;;2.85;1.17;;;;;;;15.58;54.60;95690.72;2089282;28;20243;-69
2022/09/26 10:20:51;;;;;;;2.95;1.20;;;;;;;15.38;55.69;95684.44;2071787;28;20225;-68
2022/09/26 10:21:53;;;;;;;4.10;1.40;;;;;;;14.81;57.00;95719.44;2072687;28;20649;-68
2022/09/26 10:22:54;;;;;;;4.55;1.33;;;;;;;14.50;57.72;95723.50;2072038;28;20222;-69
2022/09/26 10:23:57;;;;;;;4.53;1.40;;;;;;;14.34;57.54;95716.78;2072275;28;20690;-68
2022/09/26 10:25:05;;;;;;;3.22;1.27;;;;;;;14.54;57.83;95717.09;2069281;28;20236;-69
2022/09/26 10:26:09;;;;;;;5.65;1.50;;;;;;;14.62;57.92;95713.88;2070111;28;20293;-69
2022/09/26 10:27:24;;;;;;;4.63;1.33;;;;;;;14.42;57.07;95718.00;2070552;28;20229;-69
2022/09/26 10:28:29;;;;;;;4.75;1.13;;;;;;;14.32;56.47;95702.94;2070457;28;20855;-67
2022/09/26 10:29:33;;;;;;;1.95;1.00;;;;;;;14.46;55.26;95714.19;2071775;28;20289;-69
2022/09/26 10:30:47;;;;;;;4.30;0.90;;;;;;;15.30;53.72;95706.91;2070687;28;20237;-68
2022/09/26 10:31:59;;;;;;;1.40;0.80;;;;;;;16.95;49.05;95697.94;2071254;28;20201;-68
2022/09/26 10:33:02;;;;;;;2.53;1.25;;;;;;;17.51;47.97;95719.56;2071520;28;20225;-68
2022/09/26 10:34:07;;;;;;;2.67;1.20;;;;;;;17.84;47.47;95724.63;2065012;28;20326;-67
2022/09/26 10:35:19;;;;;;;4.95;1.10;;;;;;;18.55;46.40;95713.88;2070157;28;20201;-69
2022/09/26 10:47:34;;;;;;;4.03;0.90;;;;;;;13.98;56.26;95708.06;2075703;27;1223756;-67
2022/09/26 10:48:49;;;;;;;3.58;0.80;;;;;;;13.97;56.52;95706.38;2112987;28;20293;-65
2022/09/26 10:50:04;;;;;;;3.83;1.30;;;;;;;14.07;56.75;95709.16;2112177;28;20233;-67
2022/09/26 10:51:06;;;;;;;2.35;0.90;;;;;;;13.98;55.86;95709.81;2087227;28;20247;-67
2022/09/26 10:52:15;;;;;;;4.07;1.10;;;;;;;14.03;56.63;95705.94;2095187;28;20658;-67
2022/09/26 10:53:22;;;;;;;2.38;0.88;;;;;;;14.28;56.42;95693.59;2096181;28;20199;-66
2022/09/26 10:54:40;;;;;;;4.60;1.15;;;;;;;14.41;55.87;95701.41;2096300;28;20547;-67
2022/09/26 10:55:50;;;;;;;5.03;1.30;;;;;;;14.71;56.19;95702.69;2088003;28;20732;-66
2022/09/26 10:56:57;;;;;;;3.85;1.05;;;;;;;14.84;55.82;95708.69;2085518;28;20275;-67
2022/09/26 10:58:05;;;;;;;8.02;1.10;;;;;;;14.63;56.06;95705.03;2085003;28;20247;-67
2022/09/26 10:59:16;;;;;;;6.65;1.08;;;;;;;15.03;56.33;95699.38;2087415;28;20196;-67
2022/09/26 11:00:18;;;;;;;3.15;0.98;;;;;;;15.45;54.78;95704.00;2088773;28;20319;-67
2022/09/26 11:01:25;;;;;;;3.10;0.93;;;;;;;16.23;53.35;95699.53;2090317;28;20228;-67
2022/09/26 11:02:27;;;;;;;2.40;0.90;;;;;;;15.67;53.51;95697.91;2089887;28;20200;-67
2022/09/26 11:03:41;;;;;;;4.53;1.10;;;;;;;15.35;53.75;95688.16;2089290;28;20228;-67
2022/09/26 11:12:58;;;;;;;1.95;0.90;;;;;;;15.12;56.03;95674.16;2087689;28;20176;-67
2022/09/26 11:14:02;;;;;;;4.28;0.93;;;;;;;15.10;56.32;95660.31;2086608;28;20287;-67
2022/09/26 11:15:13;;;;;;;4.88;1.58;;;;;;;15.11;56.27;95660.19;2088286;28;20212;-67
2022/09/26 11:16:18;;;;;;;5.30;2.15;;;;;;;16.28;53.77;95670.19;2092643;28;20208;-67
2022/09/26 11:17:20;;;;;;;9.40;2.75;;;;;;;15.98;53.12;95663.84;2090150;28;20238;-67
2022/09/26 11:18:41;;;;;;;4.05;1.40;;;;;;;15.43;54.88;95651.53;2096938;28;20231;-68
2022/09/26 11:19:49;;;;;;;2.47;0.88;;;;;;;15.04;55.39;95666.88;2094585;28;20583;-67
2022/09/26 11:35:45;;;;;;;2.40;0.90;;;;;;;12.76;66.05;95645.88;2064604;27;1256539;-65
2022/09/26 11:37:08;;;;;;;4.65;1.50;;;;;;;12.82;66.78;95653.28;2103708;28;20898;-66
2022/09/26 11:38:34;;;;;;;2.67;0.98;;;;;;;12.85;66.92;95650.47;2103245;28;20453;-68
2022/09/26 11:39:57;;;;;;;2.55;1.05;;;;;;;13.28;64.57;95659.72;2103962;28;20235;-68
2022/09/26 11:41:06;;;;;;;2.45;1.05;;;;;;;13.15;65.19;95640.53;2093960;28;20273;-68
2022/09/26 11:42:59;;;;;;;4.18;1.05;;;;;;;12.87;65.82;95652.97;2114294;28;20194;-67
2022/09/26 11:44:25;;;;;;;1.83;0.80;;;;;;;13.16;65.48;95647.47;2105313;28;21037;-68
2022/09/26 11:45:45;;;;;;;3.17;1.30;;;;;;;13.47;64.19;95637.44;2101917;28;20786;-68
2022/09/26 11:47:11;;;;;;;2.83;1.10;;;;;;;14.48;62.14;95639.56;2103826;28;20281;-68
2022/09/26 11:48:27;;;;;;;2.83;1.20;;;;;;;15.06;60.87;95643.09;2103723;28;20245;-68
2022/09/26 11:49:57;;;;;;;2.20;1.10;;;;;;;15.23;61.20;95644.41;2104153;28;20219;-68
2022/09/26 11:51:21;;;;;;;1.70;0.90;;;;;;;15.96;57.90;95644.69;2107420;28;20214;-69
2022/09/26 11:52:41;;;;;;;1.52;0.80;;;;;;;16.29;56.57;95635.81;2111990;28;20608;-70
2022/09/26 12:01:04;;;;;;;4.38;1.02;;;;;;;16.32;52.28;95609.19;2110457;28;20210;-68
2022/09/26 12:02:30;;;;;;;2.17;1.08;;;;;;;16.90;52.62;95622.81;2112058;28;20233;-69
2022/09/26 12:03:54;;;;;;;4.20;1.00;;;;;;;17.00;52.21;95617.59;2109956;28;20553;-70
2022/09/26 12:05:23;;;;;;;3.08;0.90;;;;;;;16.67;51.52;95604.56;2109517;28;20216;-69
2022/09/26 12:07:06;;;;;;;1.45;0.90;;;;;;;16.25;52.41;95613.34;2107093;28;20202;-69
2022/09/26 12:08:33;;;;;;;6.63;3.15;;;;;;;15.78;53.02;95594.38;2090482;28;20208;-67
2022/09/26 12:09:40;;;;;;;12.82;5.22;;;;;;;16.16;52.55;95601.78;2110643;28;20330;-69
2022/09/26 12:11:04;;;;;;;4.07;1.20;;;;;;;16.50;51.91;95595.44;2110519;28;20241;-70
2022/09/26 12:19:33;;;;;;;3.80;1.15;;;;;;;17.60;48.83;95568.31;2111998;28;20182;-69
2022/09/26 12:20:56;;;;;;;3.00;1.10;;;;;;;18.05;48.04;95580.13;2108959;28;20355;-69
2022/09/26 12:22:29;;;;;;;3.38;0.95;;;;;;;18.02;48.40;95571.66;2109776;28;20194;-70
2022/09/26 12:23:40;;;;;;;2.60;0.73;;;;;;;17.90;48.42;95565.66;2110966;28;20693;-70
2022/09/26 12:36:17;;;;;;;1.55;0.80;;;;;;;15.40;53.43;95551.84;2117687;28;20684;-69
2022/09/26 12:37:52;;;;;;;2.35;0.90;;;;;;;15.49;53.91;95556.34;2119043;28;20661;-69
2022/09/26 12:39:24;;;;;;;2.65;0.70;;;;;;;15.20;53.55;95553.44;2077424;28;20296;-69
2022/09/26 12:40:36;;;;;;;2.00;0.80;;;;;;;15.21;53.86;95551.66;2119272;27;20774;-68
2022/09/26 12:42:01;;;;;;;3.35;1.08;;;;;;;14.77;53.36;95541.09;2119146;28;20201;-68
2022/09/26 12:43:03;;;;;;;4.30;2.20;;;;;;;14.72;54.17;95548.53;2117699;28;20194;-65
2022/09/26 12:44:32;;;;;;;11.13;5.05;;;;;;;14.68;54.66;95547.91;2118257;28;20194;-66
2022/09/26 12:45:40;;;;;;;4.35;1.30;;;;;;;14.48;55.44;95547.63;2118679;27;20300;-67
2022/09/26 12:47:20;;;;;;;2.00;0.80;;;;;;;14.55;56.07;95545.41;2113464;28;20289;-67
2022/09/26 12:48:49;;;;;;;1.95;0.95;;;;;;;14.43;55.82;95549.78;2114014;28;20343;-67
2022/09/26 12:50:15;;;;;;;3.40;0.95;;;;;;;14.28;56.58;95559.69;2112576;28;20281;-66
2022/09/26 12:51:27;;;;;;;3.60;1.02;;;;;;;14.14;56.30;95529.22;2111935;28;20246;-66
2022/09/26 12:52:53;;;;;;;2.15;1.10;;;;;;;14.45;57.00;95555.78;2113563;28;20229;-67
2022/09/26 13:06:03;;;;;;;2.60;1.00;;;;;;;13.94;58.07;95553.53;2113508;28;20187;-67
2022/09/26 13:07:30;;;;;;;2.38;1.27;;;;;;;14.10;58.17;95550.59;2113934;28;20198;-68
2022/09/26 13:08:56;;;;;;;4.38;1.20;;;;;;;13.90;59.40;95555.56;2113744;28;20285;-68
2022/09/26 13:10:27;;;;;;;4.38;1.02;;;;;;;13.98;59.51;95549.72;2113665;28;20232;-67
2022/09/26 13:11:52;;;;;;;2.85;0.90;;;;;;;13.70;59.25;95544.78;2113443;28;20808;-67
2022/09/26 13:13:28;;;;;;;2.58;0.93;;;;;;;13.91;58.86;95535.41;2113257;28;20194;-67
2022/09/26 13:14:39;;;;;;;4.07;1.00;;;;;;;13.70;58.71;95520.34;2111707;28;20221;-68
2022/09/26 13:16:23;;;;;;;3.38;1.30;;;;;;;13.81;59.35;95551.84;2111405;28;20313;-67
2022/09/26 13:17:34;;;;;;;1.40;0.80;;;;;;;13.67;59.04;95536.31;2111123;28;20201;-66
2022/09/26 13:18:46;;;;;;;2.13;0.80;;;;;;;13.70;59.45;95539.53;2112568;28;20281;-66
2022/09/26 13:19:50;;;;;;;4.07;0.80;;;;;;;13.83;59.28;95522.88;2113174;28;20198;-69
2022/09/26 13:20:56;;;;;;;2.00;0.80;;;;;;;14.47;58.56;95530.19;2114487;28;20295;-68
2022/09/26 13:22:02;;;;;;;5.47;1.38;;;;;;;14.89;57.64;95524.34;2113967;28;20284;-68
2022/09/26 13:23:20;;;;;;;2.25;0.90;;;;;;;15.12;56.27;95524.28;2112992;28;20728;-67
2022/09/26 13:24:43;;;;;;;1.40;0.80;;;;;;;15.25;56.49;95526.75;2114929;27;20289;-68
2022/09/26 13:25:51;;;;;;;2.17;1.10;;;;;;;14.52;56.57;95495.72;2113459;27;20924;-67
2022/09/26 13:27:12;;;;;;;2.00;1.20;;;;;;;14.84;57.69;95524.72;2114271;28;20731;-67
2022/09/26 13:28:45;;;;;;;1.52;0.90;;;;;;;14.90;57.36;95520.75;2109212;28;20684;-67
2022/09/26 13:30:18;;;;;;;1.40;0.80;;;;;;;14.81;57.66;95522.31;2113227;28;20206;-67
2022/09/26 13:31:54;;;;;;;1.52;0.80;;;;;;;14.57;57.28;95513.75;2110568;28;20218;-66
2022/09/26 13:33:04;;;;;;;1.50;0.90;;;;;;;14.24;58.38;95536.41;2111630;28;20663;-65
2022/09/26 13:34:16;;;;;;;3.47;0.93;;;;;;;14.20;58.67;95520.88;2111230;28;20229;-66
2022/09/26 13:35:26;;;;;;;1.60;0.80;;;;;;;13.94;59.59;95508.94;2109513;28;20305;-64
2022/09/26 13:36:30;;;;;;;3.28;0.90;;;;;;;13.91;59.63;95520.50;2110850;28;20237;-65
2022/09/26 13:38:07;;;;;;;1.70;0.88;;;;;;;13.94;59.99;95519.44;2111116;28;20213;-63
2022/09/26 13:39:23;;;;;;;2.75;0.90;;;;;;;13.70;60.43;95507.22;2112939;28;20272;-67
2022/09/26 13:40:41;;;;;;;3.92;1.00;;;;;;;13.79;60.82;95506.53;2113554;28;20305;-66
2022/09/26 13:41:52;;;;;;;4.32;1.00;;;;;;;13.67;60.52;95518.75;2112865;28;20202;-66
2022/09/26 13:48:02;;;;;;;2.85;1.00;;;;;;;13.67;61.09;95505.66;2113291;28;20171;-66
2022/09/26 13:49:32;;;;;;;2.08;0.95;;;;;;;13.84;61.50;95508.78;2112770;28;20196;-66
2022/09/26 13:50:46;;;;;;;4.90;1.10;;;;;;;13.65;61.83;95499.69;2112452;28;20297;-66
2022/09/26 13:52:13;;;;;;;2.72;1.00;;;;;;;13.53;61.91;95508.47;2113396;28;20311;-67
2022/09/26 13:53:39;;;;;;;1.40;0.80;;;;;;;13.25;62.37;95513.09;2113381;28;20277;-67
2022/09/26 13:54:59;;;;;;;3.15;0.90;;;;;;;12.99;62.72;95528.09;2113699;28;20285;-67
2022/09/26 13:56:34;;;;;;;7.82;1.10;;;;;;;12.96;63.70;95510.00;2112313;28;20229;-67
2022/09/26 13:57:37;;;;;;;1.95;0.93;;;;;;;12.91;63.97;95507.69;2107806;28;20206;-67
2022/09/26 13:58:42;;;;;;;2.28;1.00;;;;;;;12.95;64.33;95503.94;2112096;28;20835;-66
2022/09/26 13:59:53;;;;;;;2.75;1.23;;;;;;;13.11;64.05;95495.78;2111461;28;20220;-67
2022/09/26 14:01:24;;;;;;;2.65;1.00;;;;;;;13.28;64.07;95507.66;2112683;28;20275;-66
2022/09/26 14:02:30;;;;;;;1.52;0.93;;;;;;;13.32;62.93;95500.38;2111780;28;20289;-67
2022/09/26 14:03:36;;;;;;;2.35;1.00;;;;;;;13.35;63.62;95514.09;2111569;28;20724;-67
2022/09/26 14:04:38;;;;;;;2.80;1.10;;;;;;;13.25;64.27;95501.81;2112206;28;20288;-68
2022/09/26 14:05:40;;;;;;;1.95;1.10;;;;;;;13.17;63.29;95499.75;2111750;28;20792;-66
2022/09/26 14:09:22;;;;;;;3.83;1.20;;;;;;;13.04;64.22;95499.81;2110755;28;20278;-66
2022/09/26 14:10:07;;;;;;;2.67;1.20;;;;;;;12.97;64.21;95490.72;2113961;28;20202;-67
2022/09/26 14:11:14;;;;;;;2.35;0.80;;;;;;;13.03;64.54;95487.66;2113583;28;20329;-66
2022/09/26 14:12:20;;;;;;;3.58;1.20;;;;;;;12.93;64.58;95499.75;2112816;28;20209;-66
2022/09/26 14:13:34;;;;;;;7.43;4.30;;;;;;;12.73;65.20;95481.91;2112900;28;20717;-66
2022/09/26 14:14:51;;;;;;;11.00;5.32;;;;;;;12.90;65.62;95480.66;2110892;28;20192;-66
2022/09/26 14:15:58;;;;;;;3.40;1.75;;;;;;;12.96;65.13;95481.16;2111851;28;20814;-67
2022/09/26 14:17:06;;;;;;;2.25;1.00;;;;;;;12.80;65.65;95460.47;2112749;28;20196;-67
2022/09/26 14:18:20;;;;;;;2.67;0.93;;;;;;;12.89;65.48;95467.69;2112405;28;20832;-67
2022/09/26 14:19:35;;;;;;;3.15;1.10;;;;;;;12.98;65.22;95474.03;2113453;28;20239;-67
2022/09/26 14:20:51;;;;;;;1.80;1.00;;;;;;;12.99;64.95;95476.53;2112654;28;20268;-68
2022/09/26 14:22:24;;;;;;;2.70;0.90;;;;;;;12.86;64.79;95476.59;2106871;28;20233;-67
2022/09/26 14:23:37;;;;;;;3.40;0.95;;;;;;;12.89;65.40;95465.88;2110861;28;20202;-67
2022/09/26 14:24:40;;;;;;;4.55;1.02;;;;;;;12.87;64.51;95467.81;2110823;28;20289;-67
2022/09/26 14:25:44;;;;;;;2.78;0.80;;;;;;;12.71;64.16;95460.22;2115048;27;20229;-67
2022/09/26 15:18:29;;;;;;;3.60;1.13;;;;;;;11.38;74.84;95414.41;2061670;27;1354513;-70
2022/09/26 15:19:38;;;;;;;3.35;1.40;;;;;;;11.26;73.73;95395.19;2102960;28;20195;-67
2022/09/26 15:20:46;;;;;;;6.07;1.35;;;;;;;11.36;74.91;95405.00;2083158;28;20340;-67
2022/09/26 15:22:02;;;;;;;3.55;1.42;;;;;;;11.34;74.15;95407.75;2077552;28;20243;-67
2022/09/26 15:51:17;;;;;;;6.35;1.30;;;;;;;11.73;70.63;95360.66;2101639;27;20719;-67
2022/09/26 15:52:23;;;;;;;5.25;1.20;;;;;;;11.68;70.83;95371.44;2096085;28;20289;-67
2022/09/26 15:53:30;;;;;;;4.47;1.75;;;;;;;11.88;71.19;95369.22;2096520;28;20199;-67
2022/09/26 15:54:32;;;;;;;4.10;1.35;;;;;;;12.06;70.53;95374.94;2093723;28;20289;-67
2022/09/26 15:55:37;;;;;;;2.25;1.23;;;;;;;12.13;70.23;95363.13;2083212;28;20229;-68
2022/09/26 15:56:47;;;;;;;7.57;2.22;;;;;;;12.19;70.66;95367.91;2079461;28;20193;-67
2022/09/26 15:57:57;;;;;;;2.30;1.30;;;;;;;12.06;70.76;95367.09;2084922;28;20195;-67
